Time;durP1;ratioP1;P1;durP2;ratioP2;P2;SDS_P1;SDS_P2;PMS_P1;PMS_P2;Temp;Humidity;BMP_temperature;BMP_pressure;BME280_temperature;BME280_humidity;BME280_pressure;Samples;Min_cycle;Max_cycle;Signal;HPM_P1;HPM_P2
2022/03/31 00:01:04;;;;;;;6.65;3.72;;;;;;;9.30;46.50;100089.56;4953867;28;114789;-59
2022/03/31 00:03:32;;;;;;;7.13;3.80;;;;;;;9.28;46.88;100088.78;4936653;28;112929;-59
2022/03/31 00:05:59;;;;;;;6.38;3.83;;;;;;;9.26;46.60;100085.38;4952746;28;124106;-59
2022/03/31 00:08:26;;;;;;;7.15;4.38;;;;;;;9.24;46.93;100081.97;4949677;28;124301;-59
2022/03/31 00:10:55;;;;;;;7.30;4.03;;;;;;;9.22;46.81;100078.56;4949737;28;114228;-59
2022/03/31 00:13:25;;;;;;;9.23;4.50;;;;;;;9.19;47.05;100089.28;4953634;28;114913;-60
2022/03/31 00:15:55;;;;;;;9.02;4.78;;;;;;;9.16;47.14;100083.22;4953086;28;124321;-59
2022/03/31 00:18:23;;;;;;;9.23;4.78;;;;;;;9.11;47.15;100077.31;4933699;28;123078;-61
2022/03/31 00:32:29;;;;;;;9.13;5.10;;;;;;;8.88;47.31;100064.44;4934337;28;124870;-60
2022/03/31 00:34:56;;;;;;;8.23;4.80;;;;;;;8.87;47.26;100068.00;4931766;28;115248;-60
2022/03/31 00:37:44;;;;;;;8.90;4.88;;;;;;;8.88;47.48;100075.00;4933029;28;112880;-60
2022/03/31 00:40:15;;;;;;;10.40;5.47;;;;;;;8.89;47.53;100068.75;4930996;28;124459;-60
2022/03/31 00:42:46;;;;;;;10.32;5.20;;;;;;;8.91;47.50;100072.19;4950798;28;124300;-61
2022/03/31 00:45:25;;;;;;;9.20;5.53;;;;;;;8.91;47.80;100059.84;4953442;28;114252;-60
2022/03/31 00:47:54;;;;;;;11.65;5.47;;;;;;;8.94;47.52;100064.13;4954102;28;114723;-60
2022/03/31 00:50:23;;;;;;;12.40;5.97;;;;;;;8.95;47.77;100055.28;4950339;28;124140;-60
2022/03/31 00:52:51;;;;;;;11.50;6.32;;;;;;;8.95;47.71;100060.56;4950560;28;124655;-60
2022/03/31 00:55:38;;;;;;;11.48;6.35;;;;;;;8.95;47.79;100057.91;4938613;28;114963;-60
2022/03/31 00:58:06;;;;;;;10.90;5.70;;;;;;;8.95;47.83;100063.19;4951055;28;114121;-60
2022/03/31 01:00:34;;;;;;;13.30;6.78;;;;;;;8.95;47.81;100053.47;4949910;28;124818;-60
2022/03/31 01:03:03;;;;;;;11.65;6.70;;;;;;;8.97;48.07;100053.41;4951457;28;125322;-62
2022/03/31 01:05:30;;;;;;;13.75;6.78;;;;;;;8.96;47.61;100052.53;4934924;28;114662;-61
2022/03/31 01:07:58;;;;;;;12.60;7.60;;;;;;;8.97;47.96;100048.13;4951327;28;115105;-61
2022/03/31 01:10:25;;;;;;;18.48;7.97;;;;;;;8.96;47.80;100051.69;4952202;28;124130;-60
2022/03/31 01:12:52;;;;;;;15.85;8.13;;;;;;;8.94;48.04;100049.13;4951352;28;124144;-60
2022/03/31 01:15:20;;;;;;;13.82;7.78;;;;;;;8.93;47.68;100041.28;4950354;28;115299;-61
2022/03/31 01:17:48;;;;;;;14.73;8.13;;;;;;;8.91;47.91;100041.38;4950569;28;115059;-61
2022/03/31 01:20:21;;;;;;;14.43;7.50;;;;;;;8.90;48.06;100041.44;4949829;28;124244;-60
2022/03/31 01:22:51;;;;;;;14.23;7.63;;;;;;;8.88;47.72;100038.03;4951735;28;124083;-60
2022/03/31 01:25:19;;;;;;;14.15;7.70;;;;;;;8.86;48.19;100039.88;4951056;28;114337;-59
2022/03/31 01:27:47;;;;;;;15.07;7.13;;;;;;;8.84;47.99;100036.47;4950464;28;114059;-60
2022/03/31 01:30:17;;;;;;;12.70;6.82;;;;;;;8.82;48.27;100033.06;4949749;28;124430;-59
2022/03/31 01:32:46;;;;;;;12.38;6.82;;;;;;;8.81;48.13;100032.19;4950921;28;124037;-59
2022/03/31 01:35:14;;;;;;;13.52;6.63;;;;;;;8.80;48.38;100024.34;4952587;28;114219;-59
2022/03/31 01:37:44;;;;;;;10.70;6.55;;;;;;;8.77;47.80;100028.00;4950722;28;114218;-59
2022/03/31 01:40:13;;;;;;;10.57;6.05;;;;;;;8.74;48.13;100026.38;4950950;28;124440;-60
2022/03/31 01:42:42;;;;;;;10.43;6.07;;;;;;;8.72;48.28;100025.59;4932021;28;123095;-60
2022/03/31 01:45:13;;;;;;;11.02;5.60;;;;;;;8.70;48.30;100035.38;4929821;28;113809;-61
2022/03/31 01:47:42;;;;;;;8.93;5.20;;;;;;;8.67;48.47;100032.91;4933117;28;114666;-61
2022/03/31 01:50:09;;;;;;;9.30;5.68;;;;;;;8.67;48.26;100039.97;4949507;28;124126;-60
2022/03/31 01:52:40;;;;;;;9.80;5.55;;;;;;;8.66;48.32;100039.09;4934972;28;123009;-60
2022/03/31 01:55:09;;;;;;;8.02;5.40;;;;;;;8.63;48.33;100039.25;4935758;28;113366;-61
2022/03/31 01:57:36;;;;;;;11.13;5.20;;;;;;;8.60;48.37;100034.13;4951523;28;113956;-60
2022/03/31 02:00:06;;;;;;;8.60;5.60;;;;;;;8.56;48.88;100027.31;4949518;28;124137;-60
2022/03/31 02:02:40;;;;;;;;;;;;;;;8.51;48.33;100029.31;4953279;28;124586;-60
2022/03/31 02:05:08;;;;;;;9.50;5.72;;;;;;;8.47;48.92;100030.41;4931072;28;115582;-61
2022/03/31 02:07:39;;;;;;;10.18;5.88;;;;;;;8.43;48.93;100026.19;4950266;28;115303;-60
2022/03/31 02:10:11;;;;;;;9.50;5.85;;;;;;;8.38;49.22;100024.63;4949115;28;125372;-60
2022/03/31 02:12:42;;;;;;;11.35;6.35;;;;;;;8.35;49.47;100019.47;4949964;28;124562;-60
2022/03/31 02:15:12;;;;;;;11.55;5.93;;;;;;;8.34;49.54;100020.44;4952572;28;114620;-61
2022/03/31 02:17:39;;;;;;;11.57;5.80;;;;;;;8.36;49.70;100021.19;4949691;28;114319;-60
2022/03/31 02:20:09;;;;;;;14.25;5.95;;;;;;;8.36;49.42;100020.31;4949027;28;124597;-60
2022/03/31 02:22:36;;;;;;;10.82;6.05;;;;;;;8.34;49.39;100017.78;4950064;28;123847;-60
2022/03/31 02:25:05;;;;;;;10.73;6.07;;;;;;;8.31;49.57;100012.66;4935127;28;113431;-60
2022/03/31 02:27:32;;;;;;;13.05;6.18;;;;;;;8.29;49.60;100009.22;4951844;28;113996;-59
2022/03/31 02:29:59;;;;;;;11.80;6.20;;;;;;;8.28;49.71;100012.78;4948491;28;124211;-60
2022/03/31 02:32:27;;;;;;;10.60;5.25;;;;;;;8.25;50.18;100007.69;4948952;28;123996;-60
2022/03/31 02:34:55;;;;;;;10.65;5.43;;;;;;;8.24;49.97;100011.22;4950685;28;114568;-60
2022/03/31 02:37:22;;;;;;;10.20;6.30;;;;;;;8.22;50.21;100002.53;4951564;28;114616;-59
2022/03/31 02:39:50;;;;;;;11.18;6.00;;;;;;;8.21;50.25;99999.97;4948756;28;124238;-60
2022/03/31 02:42:17;;;;;;;10.90;5.57;;;;;;;8.21;50.35;100005.25;4934120;28;124037;-60
2022/03/31 02:44:45;;;;;;;9.82;5.97;;;;;;;8.19;50.15;100007.97;4930261;28;114797;-60
2022/03/31 02:47:12;;;;;;;12.10;6.07;;;;;;;8.18;50.55;99996.56;4930835;28;114062;-60
2022/03/31 02:49:41;;;;;;;14.07;5.93;;;;;;;8.18;50.67;99995.72;4914838;28;123368;-61
2022/03/31 02:52:08;;;;;;;11.77;6.18;;;;;;;8.17;50.54;99994.00;4930102;28;124342;-61
2022/03/31 02:57:21;;;;;;;13.43;6.70;;;;;;;8.11;50.83;99989.03;4930037;28;114819;-60
2022/03/31 02:59:49;;;;;;;13.60;7.07;;;;;;;8.09;50.68;99990.88;4928867;28;124843;-60
2022/03/31 03:02:16;;;;;;;11.52;6.45;;;;;;;8.06;50.69;99991.03;4930191;28;124201;-60
2022/03/31 03:04:43;;;;;;;10.63;6.13;;;;;;;8.06;50.88;99980.47;4915437;28;113370;-61
2022/03/31 03:07:10;;;;;;;13.25;6.38;;;;;;;8.03;51.06;99976.22;4929665;28;114528;-61
2022/03/31 03:09:38;;;;;;;12.68;6.75;;;;;;;8.02;50.94;99985.03;4929408;28;123787;-60
2022/03/31 03:12:07;;;;;;;13.20;6.75;;;;;;;8.03;51.00;99980.66;4932226;28;124713;-60
2022/03/31 03:14:34;;;;;;;13.18;6.60;;;;;;;8.03;51.12;99978.00;4915618;28;114139;-61
2022/03/31 03:17:02;;;;;;;12.07;6.85;;;;;;;8.02;51.00;99978.91;4933819;28;114557;-61
2022/03/31 03:19:29;;;;;;;10.10;6.07;;;;;;;7.99;51.34;99980.78;4948445;28;123708;-61
2022/03/31 03:21:56;;;;;;;10.75;6.50;;;;;;;7.98;51.03;99978.22;4930656;28;124618;-60
2022/03/31 03:24:23;;;;;;;11.00;6.35;;;;;;;7.96;51.45;99975.66;4951777;28;114238;-60
2022/03/31 03:26:50;;;;;;;12.18;6.90;;;;;;;7.95;51.40;99968.69;4949739;28;113828;-60
2022/03/31 03:29:17;;;;;;;12.55;6.40;;;;;;;7.97;51.56;99971.25;4948802;28;124220;-60
2022/03/31 03:31:44;;;;;;;10.95;6.15;;;;;;;7.96;51.33;99970.38;4949692;28;124157;-60
2022/03/31 03:34:13;;;;;;;11.15;6.47;;;;;;;7.95;51.42;99973.09;4951041;28;114629;-60
2022/03/31 03:36:41;;;;;;;14.88;6.55;;;;;;;7.96;51.49;99970.38;4949228;28;114294;-60
2022/03/31 03:39:08;;;;;;;13.07;6.40;;;;;;;7.96;51.75;99970.38;4948477;28;125001;-61
2022/03/31 03:41:35;;;;;;;13.20;6.43;;;;;;;7.97;51.44;99966.81;4948783;28;124673;-60
2022/03/31 03:44:02;;;;;;;11.18;6.30;;;;;;;7.96;51.73;99954.56;4951105;28;115612;-60
2022/03/31 03:46:30;;;;;;;11.73;6.65;;;;;;;7.96;51.73;99965.09;4950557;28;115072;-61
2022/03/31 03:48:57;;;;;;;10.63;6.10;;;;;;;7.96;51.77;99959.81;4948569;28;123978;-61
2022/03/31 03:51:25;;;;;;;13.05;6.82;;;;;;;7.95;51.88;99962.56;4947712;28;123716;-61
2022/03/31 03:53:52;;;;;;;14.00;6.50;;;;;;;7.94;51.89;99960.84;4950670;28;114494;-60
2022/03/31 03:56:20;;;;;;;12.60;6.75;;;;;;;7.95;52.00;99957.28;4917767;28;113602;-61
2022/03/31 03:58:48;;;;;;;11.63;6.75;;;;;;;7.93;51.95;99944.19;4933236;28;123090;-61
2022/03/31 04:01:15;;;;;;;14.50;7.25;;;;;;;7.93;51.73;99941.53;4950487;28;123702;-61
2022/03/31 04:03:42;;;;;;;13.25;6.45;;;;;;;7.90;51.86;99944.31;4950973;28;115757;-61
2022/03/31 04:06:11;;;;;;;12.52;6.38;;;;;;;7.90;51.90;99936.41;4951320;28;114931;-61
2022/03/31 04:08:38;;;;;;;15.05;6.47;;;;;;;7.91;51.77;99940.75;4947682;28;124653;-60
2022/03/31 04:11:06;;;;;;;12.30;6.53;;;;;;;7.90;52.10;99944.31;4948504;28;123836;-61
2022/03/31 04:13:33;;;;;;;11.65;6.65;;;;;;;7.90;52.09;99939.03;4950320;28;114932;-60
2022/03/31 04:16:00;;;;;;;13.05;6.18;;;;;;;7.89;52.26;99942.63;4948540;28;114003;-61
2022/03/31 04:18:27;;;;;;;12.45;6.50;;;;;;;7.89;52.14;99942.63;4935820;28;124203;-61
2022/03/31 04:20:54;;;;;;;11.13;6.28;;;;;;;7.90;52.47;99944.31;4928396;28;124307;-60
2022/03/31 04:23:21;;;;;;;11.15;6.07;;;;;;;7.91;52.08;99945.16;4930227;28;114402;-60
2022/03/31 04:25:49;;;;;;;10.30;5.57;;;;;;;7.90;52.31;99949.59;4929273;28;113653;-60
2022/03/31 04:28:17;;;;;;;10.32;4.82;;;;;;;7.87;52.27;99955.00;4928794;28;124338;-61
2022/03/31 04:30:44;;;;;;;7.70;4.30;;;;;;;7.82;52.08;99957.03;4915628;28;124013;-60
2022/03/31 04:33:12;;;;;;;9.35;4.63;;;;;;;7.75;52.29;99950.31;4915955;28;113953;-61
2022/03/31 04:35:39;;;;;;;8.02;4.43;;;;;;;7.69;52.37;99956.75;4932529;28;115165;-61
2022/03/31 04:38:06;;;;;;;7.78;4.05;;;;;;;7.64;52.34;99964.00;4915734;28;124226;-60
2022/03/31 04:40:34;;;;;;;8.13;4.25;;;;;;;7.58;52.49;99954.59;4933179;28;124112;-60
2022/03/31 04:43:02;;;;;;;6.82;3.83;;;;;;;7.54;52.54;99960.09;4934224;28;114653;-60
2022/03/31 04:45:29;;;;;;;6.60;3.92;;;;;;;7.52;52.47;99960.16;4953914;28;114359;-61
2022/03/31 04:47:56;;;;;;;6.57;3.47;;;;;;;7.49;52.36;99956.81;4935821;28;123029;-60
2022/03/31 04:50:23;;;;;;;6.80;3.28;;;;;;;7.47;52.34;99962.16;4951868;28;123783;-60
2022/03/31 04:52:50;;;;;;;6.03;3.42;;;;;;;7.42;52.44;99966.78;4935687;28;113806;-60
2022/03/31 04:55:18;;;;;;;6.03;3.30;;;;;;;7.35;52.60;99963.59;4951365;28;114336;-60
2022/03/31 04:57:46;;;;;;;5.78;3.20;;;;;;;7.28;52.45;99971.84;4935182;28;123382;-60
2022/03/31 05:00:13;;;;;;;5.65;3.15;;;;;;;7.21;52.87;99974.75;4952583;28;125261;-60
2022/03/31 05:02:40;;;;;;;5.53;2.97;;;;;;;7.18;52.51;99977.53;4951394;28;114474;-60
2022/03/31 05:05:08;;;;;;;5.22;3.20;;;;;;;7.13;52.94;99971.59;4935039;28;114815;-60
2022/03/31 05:07:35;;;;;;;6.13;3.03;;;;;;;7.08;52.58;99970.94;4950903;28;124507;-60
2022/03/31 05:10:03;;;;;;;4.53;3.00;;;;;;;7.05;52.94;99965.84;4950277;28;124548;-60
2022/03/31 05:12:30;;;;;;;9.40;3.30;;;;;;;6.98;53.04;99970.50;4951368;28;114052;-60
2022/03/31 05:14:57;;;;;;;4.45;2.75;;;;;;;6.92;53.41;99970.78;4954208;28;114184;-60
2022/03/31 05:17:25;;;;;;;6.78;3.20;;;;;;;6.89;53.30;99964.78;4944012;28;124607;-60
2022/03/31 05:19:52;;;;;;;5.78;3.70;;;;;;;6.83;53.33;99966.75;4930498;28;124579;-60
2022/03/31 05:22:19;;;;;;;7.72;3.60;;;;;;;6.79;53.39;99965.19;4915741;28;114165;-60
2022/03/31 05:24:46;;;;;;;5.10;2.95;;;;;;;6.74;53.41;99967.19;4931309;28;115017;-60
2022/03/31 05:27:14;;;;;;;5.82;3.17;;;;;;;6.73;53.57;99976.00;4930629;28;124060;-60
2022/03/31 05:29:41;;;;;;;4.95;2.95;;;;;;;6.70;53.58;99970.84;4930431;28;124188;-60
2022/03/31 05:32:08;;;;;;;4.78;2.78;;;;;;;6.68;53.44;99979.75;4932021;28;114245;-59
2022/03/31 05:34:36;;;;;;;6.68;2.78;;;;;;;6.66;53.57;99971.91;4916453;28;113888;-59
2022/03/31 05:37:04;;;;;;;4.97;3.22;;;;;;;6.64;53.85;99971.13;4913432;28;124290;-59
2022/03/31 05:39:32;;;;;;;5.82;2.85;;;;;;;6.64;53.93;99973.75;4932799;28;124197;-60
2022/03/31 05:42:00;;;;;;;4.55;3.13;;;;;;;6.62;53.84;99973.81;4926398;28;113473;-59
2022/03/31 05:44:27;;;;;;;6.03;3.10;;;;;;;6.60;53.78;99969.56;4952095;28;114045;-60
2022/03/31 05:46:54;;;;;;;5.38;2.97;;;;;;;6.59;53.78;99973.97;4950263;28;124435;-60
2022/03/31 05:49:21;;;;;;;5.18;3.03;;;;;;;6.60;53.87;99969.56;4949014;28;124012;-60
2022/03/31 05:51:49;;;;;;;7.03;3.40;;;;;;;6.59;53.97;99967.81;4950473;28;113779;-60
2022/03/31 05:54:16;;;;;;;5.95;3.22;;;;;;;6.57;53.85;99970.56;4933403;28;112987;-60
2022/03/31 05:56:43;;;;;;;7.72;3.55;;;;;;;6.56;54.22;99978.50;4948341;28;124467;-60
2022/03/31 05:59:11;;;;;;;5.70;3.30;;;;;;;6.54;54.33;99975.09;4948066;28;123389;-60
2022/03/31 06:01:38;;;;;;;5.78;3.72;;;;;;;6.51;54.09;99980.47;4933498;28;113041;-59
2022/03/31 06:04:06;;;;;;;7.43;3.63;;;;;;;6.51;54.53;99972.56;4951887;28;113861;-60
2022/03/31 06:06:33;;;;;;;5.57;3.10;;;;;;;6.49;54.33;99971.78;4950360;28;124810;-60
2022/03/31 06:09:00;;;;;;;6.47;3.55;;;;;;;6.45;54.47;99978.09;4946973;28;123722;-60
2022/03/31 06:11:28;;;;;;;7.50;3.80;;;;;;;6.43;54.34;99968.47;4947508;28;115826;-61
2022/03/31 06:13:55;;;;;;;6.80;3.55;;;;;;;6.42;54.50;99969.41;4950344;28;115500;-60
2022/03/31 06:16:22;;;;;;;6.40;3.00;;;;;;;6.41;54.70;99980.84;4947547;28;124032;-61
2022/03/31 06:18:49;;;;;;;6.18;3.10;;;;;;;6.42;54.64;99972.03;4948910;28;123735;-60
2022/03/31 06:21:16;;;;;;;5.68;3.50;;;;;;;6.46;54.67;99977.16;4948335;28;114704;-61
2022/03/31 06:23:43;;;;;;;6.25;2.85;;;;;;;6.51;54.49;99980.47;4951461;28;114319;-61
2022/03/31 06:26:11;;;;;;;5.35;3.08;;;;;;;6.54;54.49;99988.22;4951398;28;124319;-61
2022/03/31 06:28:38;;;;;;;4.50;3.05;;;;;;;6.55;54.47;99982.03;4950873;28;124832;-61
2022/03/31 06:31:05;;;;;;;5.10;2.95;;;;;;;6.54;54.22;99985.59;4950715;28;114457;-61
2022/03/31 06:33:32;;;;;;;4.65;3.13;;;;;;;6.54;54.09;99985.59;4951167;28;114368;-60
2022/03/31 06:36:00;;;;;;;4.70;2.63;;;;;;;6.51;53.95;99980.47;4951513;28;124052;-61
2022/03/31 06:38:27;;;;;;;4.07;2.45;;;;;;;6.48;53.73;99991.09;4931895;28;124079;-61
2022/03/31 06:41:06;;;;;;;3.50;2.33;;;;;;;6.41;54.04;99994.00;4949661;28;114190;-61
2022/03/31 06:43:34;;;;;;;3.53;2.42;;;;;;;6.38;54.06;99991.47;4933942;28;113741;-61
2022/03/31 06:46:02;;;;;;;3.30;2.30;;;;;;;6.34;53.84;99995.16;4949137;28;123826;-60
2022/03/31 06:48:30;;;;;;;3.28;2.35;;;;;;;6.30;53.81;99988.31;4933872;28;122873;-61
2022/03/31 06:50:58;;;;;;;3.15;2.20;;;;;;;6.26;53.97;99991.16;4947936;28;114335;-61
2022/03/31 06:53:26;;;;;;;4.40;2.47;;;;;;;6.22;53.78;99990.41;4950838;28;114725;-61
2022/03/31 06:55:53;;;;;;;3.35;2.42;;;;;;;6.17;53.99;99987.13;4949088;28;124668;-61
2022/03/31 06:58:25;;;;;;;4.05;2.42;;;;;;;6.11;54.23;99984.75;4951015;28;123962;-60
2022/03/31 07:00:52;;;;;;;3.78;2.72;;;;;;;6.08;54.01;99982.22;4947889;28;115616;-60
2022/03/31 07:03:19;;;;;;;3.60;2.25;;;;;;;6.06;54.29;99978.81;4950580;28;115151;-60
2022/03/31 07:05:46;;;;;;;3.63;2.33;;;;;;;6.01;54.02;99982.47;4949474;28;124423;-61
2022/03/31 07:08:14;;;;;;;3.10;2.22;;;;;;;6.01;54.05;99985.09;4949981;28;124121;-61
2022/03/31 07:10:41;;;;;;;3.22;2.03;;;;;;;6.00;54.15;99980.75;4948467;28;114931;-61
2022/03/31 07:13:08;;;;;;;3.60;2.45;;;;;;;5.98;54.02;99981.75;4949867;28;113773;-61
2022/03/31 07:15:36;;;;;;;3.47;1.98;;;;;;;5.95;53.95;99981.81;4950744;28;124424;-61
2022/03/31 07:18:04;;;;;;;3.63;2.17;;;;;;;5.90;54.23;99984.66;4945543;28;124996;-61
2022/03/31 07:20:33;;;;;;;4.47;2.38;;;;;;;5.84;53.83;99980.50;4945007;28;114621;-62
2022/03/31 07:23:01;;;;;;;3.95;2.55;;;;;;;5.79;53.84;99986.84;4949265;28;113844;-62
2022/03/31 07:25:28;;;;;;;3.13;2.17;;;;;;;5.74;53.75;99983.53;4925297;28;124950;-62
2022/03/31 07:27:56;;;;;;;3.42;2.22;;;;;;;5.69;53.95;99985.47;4940734;28;124337;-63
2022/03/31 07:30:24;;;;;;;5.38;2.55;;;;;;;5.63;53.75;99976.94;4918150;28;113488;-60
2022/03/31 07:32:54;;;;;;;4.72;2.70;;;;;;;5.60;53.98;99981.44;4940940;28;113127;-60
2022/03/31 07:35:22;;;;;;;4.38;2.28;;;;;;;5.58;54.15;99978.88;4939273;28;124079;-60
2022/03/31 07:37:51;;;;;;;5.38;2.50;;;;;;;5.59;53.74;99977.09;4947275;28;124231;-60
2022/03/31 07:40:21;;;;;;;4.70;2.85;;;;;;;5.56;54.07;99980.72;4945315;28;114315;-58
2022/03/31 07:42:49;;;;;;;5.35;3.10;;;;;;;5.53;54.08;99986.06;4945817;28;114104;-59
2022/03/31 07:45:17;;;;;;;5.05;3.10;;;;;;;5.52;54.05;99979.13;4941707;28;124426;-58
2022/03/31 07:47:44;;;;;;;5.32;3.20;;;;;;;5.52;54.11;99984.38;4949590;28;123872;-58
2022/03/31 07:50:15;;;;;;;5.50;3.33;;;;;;;5.52;54.17;99983.50;4948932;28;115174;-59
2022/03/31 07:52:43;;;;;;;6.20;3.22;;;;;;;5.51;54.05;99980.03;4950424;28;115574;-59
2022/03/31 07:55:13;;;;;;;4.53;2.95;;;;;;;5.50;53.95;99980.94;4950911;28;124202;-58
2022/03/31 07:57:41;;;;;;;3.83;2.58;;;;;;;5.46;54.01;99980.22;4946666;28;124536;-58
2022/03/31 08:00:11;;;;;;;4.55;2.83;;;;;;;5.45;54.14;99978.47;4947058;28;114602;-59
2022/03/31 08:02:43;;;;;;;4.25;2.45;;;;;;;5.46;54.22;99979.31;4949836;28;114015;-59
2022/03/31 08:05:11;;;;;;;3.83;2.47;;;;;;;5.49;54.10;99981.84;4950257;28;124725;-59
2022/03/31 08:07:39;;;;;;;3.78;2.30;;;;;;;5.51;54.17;99980.03;4953103;28;124256;-59
2022/03/31 08:10:07;;;;;;;3.40;1.98;;;;;;;5.51;54.06;99982.66;4950668;28;114281;-59
2022/03/31 08:12:35;;;;;;;3.28;2.30;;;;;;;5.51;54.33;99976.53;4951219;28;114228;-59
2022/03/31 08:15:04;;;;;;;3.85;2.38;;;;;;;5.53;54.42;99975.56;4949747;28;124061;-59
2022/03/31 08:17:31;;;;;;;4.85;2.47;;;;;;;5.57;54.29;99982.41;4950993;28;124602;-59
2022/03/31 08:20:00;;;;;;;4.45;2.70;;;;;;;5.57;54.39;99978.94;4936253;28;113329;-59
2022/03/31 08:22:27;;;;;;;4.65;2.40;;;;;;;5.58;54.29;99984.13;4951393;28;114127;-59
2022/03/31 08:25:00;;;;;;;3.45;2.08;;;;;;;5.56;54.36;99985.97;4952213;28;124511;-59
2022/03/31 08:27:28;;;;;;;3.92;2.35;;;;;;;5.55;54.17;99984.22;4936218;28;123353;-61
2022/03/31 08:29:56;;;;;;;4.10;2.35;;;;;;;5.55;54.29;99978.13;4947852;28;115861;-61
2022/03/31 08:32:23;;;;;;;4.03;2.20;;;;;;;5.56;54.23;99983.34;4917267;28;114104;-61
2022/03/31 08:34:50;;;;;;;3.10;1.90;;;;;;;5.58;54.07;99978.88;4931469;28;123986;-61
2022/03/31 08:37:18;;;;;;;5.13;2.00;;;;;;;5.60;54.50;99974.41;4932745;28;123741;-61
2022/03/31 08:39:45;;;;;;;3.22;2.00;;;;;;;5.64;54.39;99981.25;4931236;28;114981;-61
2022/03/31 08:42:13;;;;;;;3.20;1.80;;;;;;;5.66;54.53;99982.06;4948061;28;115409;-62
2022/03/31 08:44:40;;;;;;;2.20;1.60;;;;;;;5.70;54.46;99981.94;4951051;28;124327;-61
2022/03/31 08:47:10;;;;;;;3.17;2.00;;;;;;;5.73;54.64;99977.44;4953416;28;123886;-61
2022/03/31 08:49:37;;;;;;;2.75;1.85;;;;;;;5.78;54.78;99985.13;4951625;28;114107;-61
2022/03/31 08:52:05;;;;;;;2.75;1.70;;;;;;;5.83;54.63;99980.53;4950956;28;113787;-61
2022/03/31 08:54:32;;;;;;;2.55;1.83;;;;;;;5.88;54.71;99981.22;4953598;28;124609;-61
2022/03/31 08:56:59;;;;;;;2.42;1.60;;;;;;;5.90;54.55;99979.41;4953341;28;124248;-62
2022/03/31 08:59:47;;;;;;;2.63;1.52;;;;;;;5.93;54.68;99974.00;4950419;28;114130;-61
2022/03/31 09:02:25;;;;;;;1.98;1.42;;;;;;;5.97;54.84;99972.13;4953534;28;113880;-61
2022/03/31 09:05:04;;;;;;;2.65;1.50;;;;;;;6.01;54.63;99985.09;4951460;28;124056;-58
2022/03/31 09:07:31;;;;;;;2.75;1.83;;;;;;;6.06;54.81;99984.06;4950907;28;124510;-58
2022/03/31 09:09:58;;;;;;;2.25;1.50;;;;;;;6.10;54.79;99986.50;4950890;28;114334;-58
2022/03/31 09:12:36;;;;;;;2.67;1.80;;;;;;;6.14;55.02;99987.22;4954217;28;114560;-58
2022/03/31 09:15:23;;;;;;;2.15;1.70;;;;;;;6.17;54.57;99992.38;4935358;28;123025;-58
2022/03/31 09:17:55;;;;;;;2.33;1.45;;;;;;;6.18;54.58;99994.09;4950793;28;123712;-59
2022/03/31 09:20:23;;;;;;;2.20;1.70;;;;;;;6.20;54.60;99981.75;4950349;28;114186;-59
2022/03/31 09:22:50;;;;;;;2.38;1.70;;;;;;;6.22;54.81;99985.16;4933872;28;113259;-60
2022/03/31 09:25:28;;;;;;;2.40;1.63;;;;;;;6.26;54.73;99985.91;4950996;28;124300;-59
2022/03/31 09:27:56;;;;;;;2.50;1.38;;;;;;;6.29;54.93;99981.38;4950505;28;124452;-60
2022/03/31 09:30:24;;;;;;;2.10;1.38;;;;;;;6.30;54.91;99988.31;4948926;28;115123;-60
2022/03/31 09:32:51;;;;;;;2.25;1.50;;;;;;;6.32;54.74;99989.09;4951206;28;115094;-60
2022/03/31 09:35:23;;;;;;;2.45;1.80;;;;;;;6.33;54.94;99982.94;4950833;28;123883;-60
2022/03/31 09:37:54;;;;;;;2.47;1.92;;;;;;;6.35;54.82;99986.38;4948499;28;124736;-60
2022/03/31 09:40:22;;;;;;;3.28;1.77;;;;;;;6.36;54.87;99988.06;4949142;28;114452;-61
2022/03/31 09:42:59;;;;;;;2.67;1.65;;;;;;;6.40;55.03;99989.66;4950513;28;114474;-60
2022/03/31 09:45:41;;;;;;;2.08;1.63;;;;;;;6.45;55.19;99988.63;4949244;28;124126;-60
2022/03/31 09:48:19;;;;;;;3.10;2.10;;;;;;;6.48;55.08;99994.59;4933254;28;124596;-60
2022/03/31 09:50:47;;;;;;;2.75;1.70;;;;;;;6.53;55.21;99994.41;4931169;28;114801;-58
2022/03/31 09:53:15;;;;;;;2.63;1.70;;;;;;;6.57;55.00;99995.97;4931921;28;114317;-59
2022/03/31 09:55:46;;;;;;;3.30;2.00;;;;;;;6.62;55.07;99994.00;4932003;28;124704;-59
2022/03/31 09:58:19;;;;;;;2.70;1.92;;;;;;;6.67;55.30;99989.41;4944798;28;124535;-58
2022/03/31 10:00:47;;;;;;;2.72;1.90;;;;;;;6.70;54.98;99991.91;4949637;28;114381;-58
2022/03/31 10:03:15;;;;;;;2.90;1.92;;;;;;;6.74;55.04;99988.25;4934914;28;113641;-58
2022/03/31 10:05:45;;;;;;;3.17;1.83;;;;;;;6.78;55.34;99991.56;4952221;28;124898;-58
2022/03/31 10:08:13;;;;;;;2.33;1.77;;;;;;;6.81;55.33;99987.03;4934151;28;123468;-58
2022/03/31 10:10:40;;;;;;;2.90;1.92;;;;;;;6.83;55.37;99987.81;4950029;28;113820;-58
2022/03/31 10:13:22;;;;;;;2.60;1.90;;;;;;;6.86;55.25;99983.38;4946062;28;114882;-58
2022/03/31 10:15:59;;;;;;;2.70;1.73;;;;;;;6.92;55.48;99975.19;4947735;28;123176;-60
2022/03/31 10:18:26;;;;;;;2.67;1.80;;;;;;;6.98;55.69;99980.19;4949610;28;124067;-59
2022/03/31 10:20:59;;;;;;;2.35;1.80;;;;;;;7.04;55.62;99986.97;4944649;28;115566;-60
2022/03/31 10:26:22;;;;;;;3.08;2.00;;;;;;;7.15;55.50;99982.91;4947739;28;124709;-60
2022/03/31 10:28:53;;;;;;;;;;;;;;;7.21;55.38;99977.41;4946492;28;124047;-60
2022/03/31 10:31:20;;;;;;;2.85;1.90;;;;;;;7.26;54.98;99976.31;4948696;28;114198;-60
2022/03/31 10:33:52;;;;;;;2.40;1.90;;;;;;;7.27;55.07;99980.66;4949278;28;114432;-60
2022/03/31 10:36:21;;;;;;;2.53;1.90;;;;;;;7.31;55.11;99976.94;4950851;28;124226;-59
2022/03/31 10:38:55;;;;;;;3.00;1.75;;;;;;;7.35;55.20;99978.53;4933249;28;123863;-59
2022/03/31 10:41:35;;;;;;;2.30;1.83;;;;;;;7.39;55.14;99974.84;4945890;28;114524;-60
2022/03/31 10:44:15;;;;;;;2.65;1.90;;;;;;;7.40;55.35;99976.53;4917310;28;113110;-60
2022/03/31 10:46:45;;;;;;;2.55;1.70;;;;;;;7.41;55.14;99973.00;4948825;28;124073;-60
2022/03/31 10:49:19;;;;;;;2.67;1.90;;;;;;;7.40;54.99;99971.25;4948923;28;124815;-60
2022/03/31 10:51:46;;;;;;;2.72;1.80;;;;;;;7.39;55.23;99959.03;4934176;28;113556;-60
2022/03/31 10:54:33;;;;;;;3.42;2.00;;;;;;;7.40;55.07;99958.09;4952272;28;113413;-60
2022/03/31 10:57:15;;;;;;;3.00;1.98;;;;;;;7.43;55.44;99959.75;4934390;28;123051;-60
2022/03/31 10:59:44;;;;;;;4.22;2.50;;;;;;;7.43;54.96;99960.59;4948553;28;123860;-60
2022/03/31 11:02:12;;;;;;;3.35;2.03;;;;;;;7.42;55.35;99958.88;4934211;28;113088;-60
2022/03/31 11:04:46;;;;;;;2.40;1.75;;;;;;;7.42;55.27;99958.88;4949467;28;114334;-60
2022/03/31 11:07:18;;;;;;;3.25;2.10;;;;;;;7.42;55.22;99964.16;4949207;28;124056;-60
2022/03/31 11:09:46;;;;;;;2.72;2.00;;;;;;;7.41;55.06;99962.44;4948263;28;125361;-60
2022/03/31 11:12:26;;;;;;;2.83;1.92;;;;;;;7.41;54.94;99962.44;4948783;28;115391;-60
2022/03/31 11:15:03;;;;;;;2.67;1.83;;;;;;;7.41;55.35;99958.03;4934063;28;114121;-60
2022/03/31 11:17:30;;;;;;;2.30;1.75;;;;;;;7.41;55.06;99963.28;4923083;28;123885;-59
2022/03/31 11:20:00;;;;;;;2.50;1.77;;;;;;;7.43;55.17;99963.22;4929679;28;123813;-59
2022/03/31 11:22:27;;;;;;;2.78;2.03;;;;;;;7.45;55.38;99961.38;4929669;28;114165;-59
2022/03/31 11:43:32;;;;;;;1.45;1.10;;;;;;;15.71;48.93;99940.13;4999745;28;97127;-64
2022/03/31 11:45:59;;;;;;;1.67;1.30;;;;;;;14.54;48.31;99933.28;4999636;28;107475;-64
2022/03/31 11:48:33;;;;;;;1.65;1.27;;;;;;;13.66;48.03;99935.44;4986913;28;124065;-64
2022/03/31 11:51:03;;;;;;;1.70;1.30;;;;;;;12.96;48.01;99937.63;4995900;28;124224;-64
2022/03/31 11:53:38;;;;;;;1.40;1.30;;;;;;;12.33;47.99;99933.09;4998080;28;107646;-64
2022/03/31 11:56:27;;;;;;;2.30;1.42;;;;;;;11.72;48.30;99933.50;4980670;28;106152;-63
2022/03/31 11:58:57;;;;;;;2.00;1.40;;;;;;;11.16;48.40;99932.63;4998375;28;123857;-63
2022/03/31 12:01:43;;;;;;;1.95;1.52;;;;;;;10.66;48.92;99942.72;4998060;28;123896;-63
2022/03/31 12:04:22;;;;;;;1.85;1.58;;;;;;;10.25;49.47;99938.06;5005894;28;106472;-63
2022/03/31 12:06:52;;;;;;;3.33;1.65;;;;;;;9.90;49.61;99939.13;4998740;28;107361;-63
2022/03/31 12:09:20;;;;;;;1.90;1.65;;;;;;;9.61;50.28;99932.84;4996723;28;124380;-63
2022/03/31 12:11:48;;;;;;;3.08;1.52;;;;;;;9.37;50.40;99939.50;4987103;28;124921;-63
2022/03/31 12:14:16;;;;;;;2.65;1.80;;;;;;;9.15;50.98;99936.22;4991456;28;105450;-64